Aérodrome :
LOGIN :

S'inscrire | Disclaimer

   EN    FR    IT 

 










Légende :    VFR   VFR Marginal   IFR   IFR Intensif   IFR Très Intensif
Visi : 
Plafond : 
>= 8 km
>= 3000ft
5 à 8 km
1000 à 3000 ft
1500m à 5 km
500 à 1000 ft
800 à 1500m
200 à 500 ft
< 800m
< 200 ft
Symboles :   Orages  Brouillard  Fortes neiges  Fortes précipitations  Vent > 20 kt
SIGMETs :   Divers  Orages  Givrage  Turbulence  Onde Orograph.  Cendres Volcan.







- Altitude de l'aérodrome : 913 ft
- Voir les cartes d'approche


LFSX - Luxeuil

DERNIER METAR :
  • 251200Z AUTO 02006KT 320V080 9999 SCT047/// SCT060/// 22/12 Q1021 NOSIG

METARs EXPIRÉS :
  • 251130Z AUTO 34006KT 300V030 9999 BKN045/// BKN054/// 23/12 Q1021 NOSIG
  • 251100Z AUTO VRB04KT 9999 SCT045/// BKN054/// 22/12 Q1022 NOSIG
  • 251030Z AUTO 08005KT 020V140 9999 BKN041/// 22/12 Q1022 NOSIG
  • 251000Z AUTO 04006KT 340V110 9999 BKN040/// BKN054/// 21/11 Q1022 NOSIG
  • 250930Z AUTO 03007KT 350V070 9999 BKN041/// BKN047/// BKN054/// 21/12 Q1022 NOSIG

TAF TAF LFSX
Valide du 25 à 09h jusqu'au 26 à 09h UTC


250800Z 2509/2609 02009KT CAVOK
Pas de NOTAMs connus pour ce terrain.



MET'MAP, la Météo Aéronautique d'un coup d'oeil ! - Copyright ORBIFLY Décembre 2007 - Disclaimer

ORBIFLY MET'MAP TEAM :

Programmation & Développement : Alexandra Zaïnal
Conception & Développement : Baudouin d'Aumeries
Co-Programmation & Développement : Marc-Olivier Méhu
Soutien technique & logistique : Manuel Goepfert

Contact : metmap@orbifly.com




SOURCES & CREDITS :

   NOAA